GB-0049 weather

Bowerswaine Farm Airfield
Wimbourne, England, United Kingdom

Public forecast

Using degrees Celsius for public forecast. Weather courtesy of forecast.io.

Closest aviation weather report (METAR) to Bowerswaine Farm Airfield

Report is more than 2 hours old.

Closest report is Bournemouth Airport, 8.5 nm (15.8 km) SE. Retrieved 2020/04/02 17:20 UTC (2 hours ago):

EGHH 021720Z 31014KT 9999 SCT029 12/06 Q1015

Closest aviation forecast (TAF) to Bowerswaine Farm Airfield

Forecast is more than 12 hours old.

Closest forecast is Bournemouth Airport, 8.5 nm (15.8 km) SE. Retrieved 2020/02/21 21:06 UTC (1 month ago):

TAF EGHH 210200Z 2021/2123 CNL